sensor_id;sensor_type;location;lat;lon;timestamp;pressure;altitude;pressure_sealevel;temperature;humidity
29315;BME280;16320;53.954;9.506;2023-04-16T00:01:22;101704.72;;;8.74;100.00
29315;BME280;16320;53.954;9.506;2023-04-16T00:04:26;101709.16;;;8.72;100.00
29315;BME280;16320;53.954;9.506;2023-04-16T00:07:31;101704.94;;;8.68;100.00
29315;BME280;16320;53.954;9.506;2023-04-16T00:10:35;101704.81;;;8.71;100.00
29315;BME280;16320;53.954;9.506;2023-04-16T00:13:40;101706.72;;;8.66;100.00
29315;BME280;16320;53.954;9.506;2023-04-16T00:16:44;101716.28;;;8.67;100.00
29315;BME280;16320;53.954;9.506;2023-04-16T00:19:49;101711.94;;;8.66;100.00
29315;BME280;16320;53.954;9.506;2023-04-16T00:22:53;101718.91;;;8.67;100.00
29315;BME280;16320;53.954;9.506;2023-04-16T00:25:58;101722.44;;;8.66;100.00
29315;BME280;16320;53.954;9.506;2023-04-16T00:29:04;101720.72;;;8.65;100.00
29315;BME280;16320;53.954;9.506;2023-04-16T00:32:08;101717.28;;;8.63;100.00
29315;BME280;16320;53.954;9.506;2023-04-16T00:35:12;101726.13;;;8.58;100.00
29315;BME280;16320;53.954;9.506;2023-04-16T00:38:17;101721.81;;;8.56;100.00
29315;BME280;16320;53.954;9.506;2023-04-16T00:41:22;101719.28;;;8.53;100.00
29315;BME280;16320;53.954;9.506;2023-04-16T00:44:26;101720.31;;;8.47;100.00
29315;BME280;16320;53.954;9.506;2023-04-16T00:47:30;101727.50;;;8.39;100.00
29315;BME280;16320;53.954;9.506;2023-04-16T00:50:35;101732.75;;;8.37;100.00
29315;BME280;16320;53.954;9.506;2023-04-16T00:53:39;101734.53;;;8.37;100.00
29315;BME280;16320;53.954;9.506;2023-04-16T00:56:44;101737.16;;;8.37;100.00
29315;BME280;16320;53.954;9.506;2023-04-16T00:59:49;101742.38;;;8.37;100.00
29315;BME280;16320;53.954;9.506;2023-04-16T01:02:53;101735.41;;;8.36;100.00
29315;BME280;16320;53.954;9.506;2023-04-16T01:05:58;101733.66;;;8.36;100.00
29315;BME280;16320;53.954;9.506;2023-04-16T01:09:04;101733.81;;;8.30;100.00
29315;BME280;16320;53.954;9.506;2023-04-16T01:12:08;101733.81;;;8.30;100.00
29315;BME280;16320;53.954;9.506;2023-04-16T01:15:13;101736.53;;;8.27;100.00
29315;BME280;16320;53.954;9.506;2023-04-16T01:18:19;101743.50;;;8.27;100.00
29315;BME280;16320;53.954;9.506;2023-04-16T01:21:24;101748.75;;;8.27;100.00
29315;BME280;16320;53.954;9.506;2023-04-16T01:24:29;101746.19;;;8.23;100.00
29315;BME280;16320;53.954;9.506;2023-04-16T01:27:34;101752.31;;;8.24;100.00
29315;BME280;16320;53.954;9.506;2023-04-16T01:30:38;101749.81;;;8.19;100.00
29315;BME280;16320;53.954;9.506;2023-04-16T01:33:42;101757.59;;;8.22;100.00
29315;BME280;16320;53.954;9.506;2023-04-16T01:36:47;101757.78;;;8.15;100.00
29315;BME280;16320;53.954;9.506;2023-04-16T01:39:51;101752.63;;;8.12;100.00
29315;BME280;16320;53.954;9.506;2023-04-16T01:42:55;101758.69;;;8.12;100.00
29315;BME280;16320;53.954;9.506;2023-04-16T01:46:27;101762.16;;;8.14;100.00
29315;BME280;16320;53.954;9.506;2023-04-16T01:49:33;101763.94;;;8.12;100.00
29315;BME280;16320;53.954;9.506;2023-04-16T01:52:39;101763.13;;;8.10;100.00
29315;BME280;16320;53.954;9.506;2023-04-16T01:55:43;101763.22;;;8.05;100.00
29315;BME280;16320;53.954;9.506;2023-04-16T01:58:47;101767.53;;;8.08;100.00
29315;BME280;16320;53.954;9.506;2023-04-16T02:01:51;101768.34;;;8.10;100.00
29315;BME280;16320;53.954;9.506;2023-04-16T02:04:56;101770.19;;;8.06;100.00
29315;BME280;16320;53.954;9.506;2023-04-16T02:08:01;101763.41;;;7.99;100.00
29315;BME280;16320;53.954;9.506;2023-04-16T02:11:05;101769.47;;;8.00;100.00
29315;BME280;16320;53.954;9.506;2023-04-16T02:14:10;101770.38;;;7.99;100.00
29315;BME280;16320;53.954;9.506;2023-04-16T02:17:14;101770.34;;;8.00;100.00
29315;BME280;16320;53.954;9.506;2023-04-16T02:20:18;101768.66;;;7.98;100.00
29315;BME280;16320;53.954;9.506;2023-04-16T02:23:23;101765.03;;;8.03;100.00
29315;BME280;16320;53.954;9.506;2023-04-16T02:26:27;101760.72;;;8.01;100.00
29315;BME280;16320;53.954;9.506;2023-04-16T02:29:32;101769.47;;;8.00;100.00
29315;BME280;16320;53.954;9.506;2023-04-16T02:32:36;101771.06;;;8.05;100.00
29315;BME280;16320;53.954;9.506;2023-04-16T02:35:41;101761.53;;;8.04;100.00
29315;BME280;16320;53.954;9.506;2023-04-16T02:38:46;101765.88;;;8.04;100.00
29315;BME280;16320;53.954;9.506;2023-04-16T02:41:50;101767.72;;;8.00;100.00
29315;BME280;16320;53.954;9.506;2023-04-16T02:44:55;101764.28;;;7.98;100.00
29315;BME280;16320;53.954;9.506;2023-04-16T02:47:59;101774.66;;;8.03;100.00
29315;BME280;16320;53.954;9.506;2023-04-16T02:51:04;101771.09;;;8.04;100.00
29315;BME280;16320;53.954;9.506;2023-04-16T02:54:09;101765.03;;;8.03;100.00
29315;BME280;16320;53.954;9.506;2023-04-16T02:57:13;101768.50;;;8.04;100.00
29315;BME280;16320;53.954;9.506;2023-04-16T03:00:18;101776.28;;;8.07;100.00
29315;BME280;16320;53.954;9.506;2023-04-16T03:03:23;101777.97;;;8.10;100.00
29315;BME280;16320;53.954;9.506;2023-04-16T03:06:26;101782.47;;;8.04;100.00
29315;BME280;16320;53.954;9.506;2023-04-16T03:09:31;101785.19;;;8.00;100.00
29315;BME280;16320;53.954;9.506;2023-04-16T03:12:36;101786.03;;;8.00;100.00
29315;BME280;16320;53.954;9.506;2023-04-16T03:15:40;101782.47;;;8.04;100.00
29315;BME280;16320;53.954;9.506;2023-04-16T03:18:44;101787.66;;;8.06;100.00
29315;BME280;16320;53.954;9.506;2023-04-16T03:21:49;101784.13;;;8.07;100.00
29315;BME280;16320;53.954;9.506;2023-04-16T03:24:53;101787.66;;;8.06;100.00
29315;BME280;16320;53.954;9.506;2023-04-16T03:27:58;101795.50;;;8.06;100.00
29315;BME280;16320;53.954;9.506;2023-04-16T03:31:02;101793.78;;;8.05;100.00
29315;BME280;16320;53.954;9.506;2023-04-16T03:34:06;101795.56;;;8.03;100.00
29315;BME280;16320;53.954;9.506;2023-04-16T03:37:11;101794.69;;;8.02;100.00
29315;BME280;16320;53.954;9.506;2023-04-16T03:40:15;101799.06;;;8.02;100.00
29315;BME280;16320;53.954;9.506;2023-04-16T03:43:19;101804.16;;;8.08;100.00
29315;BME280;16320;53.954;9.506;2023-04-16T03:46:24;101807.75;;;8.04;100.00
29315;BME280;16320;53.954;9.506;2023-04-16T03:49:28;101811.41;;;7.97;100.00
29315;BME280;16320;53.954;9.506;2023-04-16T03:52:32;101814.91;;;7.96;100.00
29315;BME280;16320;53.954;9.506;2023-04-16T03:55:37;101819.09;;;8.04;100.00
29315;BME280;16320;53.954;9.506;2023-04-16T03:58:41;101816.50;;;8.03;100.00
29315;BME280;16320;53.954;9.506;2023-04-16T04:01:45;101814.78;;;8.02;100.00
29315;BME280;16320;53.954;9.506;2023-04-16T04:04:50;101816.56;;;8.00;100.00
29315;BME280;16320;53.954;9.506;2023-04-16T04:07:54;101821.00;;;7.98;100.00
29315;BME280;16320;53.954;9.506;2023-04-16T04:10:59;101821.00;;;7.98;100.00
29315;BME280;16320;53.954;9.506;2023-04-16T04:14:04;101825.38;;;7.96;100.00
29315;BME280;16320;53.954;9.506;2023-04-16T04:17:08;101820.97;;;7.99;100.00
29315;BME280;16320;53.954;9.506;2023-04-16T04:20:12;101824.44;;;8.00;100.00
29315;BME280;16320;53.954;9.506;2023-04-16T04:23:16;101825.38;;;7.96;100.00
29315;BME280;16320;53.954;9.506;2023-04-16T04:26:21;101822.63;;;8.02;100.00
29315;BME280;16320;53.954;9.506;2023-04-16T04:29:26;101832.13;;;8.06;100.00
29315;BME280;16320;53.954;9.506;2023-04-16T04:32:31;101823.38;;;8.07;100.00
29315;BME280;16320;53.954;9.506;2023-04-16T04:35:35;101817.34;;;8.03;100.00
29315;BME280;16320;53.954;9.506;2023-04-16T04:38:39;101823.44;;;8.04;100.00
29315;BME280;16320;53.954;9.506;2023-04-16T04:41:43;101821.66;;;8.06;100.00
29315;BME280;16320;53.954;9.506;2023-04-16T04:44:48;101826.91;;;8.06;100.00
29315;BME280;16320;53.954;9.506;2023-04-16T04:47:52;101834.75;;;8.06;100.00
29315;BME280;16320;53.954;9.506;2023-04-16T04:50:57;101834.63;;;8.11;100.00
29315;BME280;16320;53.954;9.506;2023-04-16T04:54:01;101837.31;;;8.09;100.00
29315;BME280;16320;53.954;9.506;2023-04-16T04:57:06;101833.69;;;8.13;100.00
29315;BME280;16320;53.954;9.506;2023-04-16T05:00:11;101836.31;;;8.13;100.00
29315;BME280;16320;53.954;9.506;2023-04-16T05:03:20;101836.22;;;8.18;100.00
29315;BME280;16320;53.954;9.506;2023-04-16T05:06:24;101838.88;;;8.16;100.00
29315;BME280;16320;53.954;9.506;2023-04-16T05:09:32;101840.63;;;8.16;100.00
29315;BME280;16320;53.954;9.506;2023-04-16T05:12:36;101838.72;;;8.22;100.00
29315;BME280;16320;53.954;9.506;2023-04-16T05:15:40;101845.59;;;8.27;100.00
29315;BME280;16320;53.954;9.506;2023-04-16T05:18:45;101850.75;;;8.30;100.00
29315;BME280;16320;53.954;9.506;2023-04-16T05:21:49;101849.72;;;8.37;100.00
29315;BME280;16320;53.954;9.506;2023-04-16T05:24:54;101843.47;;;8.44;100.00
29315;BME280;16320;53.954;9.506;2023-04-16T05:27:58;101842.59;;;8.43;100.00
29315;BME280;16320;53.954;9.506;2023-04-16T05:31:03;101846.00;;;8.47;100.00
29315;BME280;16320;53.954;9.506;2023-04-16T05:34:07;101848.50;;;8.52;100.00
29315;BME280;16320;53.954;9.506;2023-04-16T05:37:12;101850.25;;;8.51;100.00
29315;BME280;16320;53.954;9.506;2023-04-16T05:40:16;101862.38;;;8.55;100.00
29315;BME280;16320;53.954;9.506;2023-04-16T05:43:20;101854.44;;;8.58;100.00
29315;BME280;16320;53.954;9.506;2023-04-16T05:46:24;101865.81;;;8.57;100.00
29315;BME280;16320;53.954;9.506;2023-04-16T05:49:29;101864.78;;;8.65;100.00
29315;BME280;16320;53.954;9.506;2023-04-16T05:52:33;101863.06;;;8.64;100.00
29315;BME280;16320;53.954;9.506;2023-04-16T05:55:37;101866.44;;;8.67;100.00
29315;BME280;16320;53.954;9.506;2023-04-16T05:58:42;101865.44;;;8.73;100.00
29315;BME280;16320;53.954;9.506;2023-04-16T06:01:45;101868.88;;;8.75;100.00
29315;BME280;16320;53.954;9.506;2023-04-16T06:04:50;101868.78;;;8.78;100.00
29315;BME280;16320;53.954;9.506;2023-04-16T06:07:55;101875.78;;;8.79;100.00
29315;BME280;16320;53.954;9.506;2023-04-16T06:10:59;101881.78;;;8.83;100.00
29315;BME280;16320;53.954;9.506;2023-04-16T06:14:04;101884.34;;;8.86;100.00
29315;BME280;16320;53.954;9.506;2023-04-16T06:17:08;101894.78;;;8.87;100.00
29315;BME280;16320;53.954;9.506;2023-04-16T06:20:13;101896.41;;;8.91;100.00
29315;BME280;16320;53.954;9.506;2023-04-16T06:23:17;101897.16;;;8.95;100.00
29315;BME280;16320;53.954;9.506;2023-04-16T06:26:21;101901.47;;;8.97;100.00
29315;BME280;16320;53.954;9.506;2023-04-16T06:29:26;101901.31;;;9.04;100.00
29315;BME280;16320;53.954;9.506;2023-04-16T06:32:43;101903.09;;;9.02;100.00
29315;BME280;16320;53.954;9.506;2023-04-16T06:35:49;101896.09;;;9.04;100.00
29315;BME280;16320;53.954;9.506;2023-04-16T06:38:54;101906.44;;;9.08;100.00
29315;BME280;16320;53.954;9.506;2023-04-16T06:41:58;101902.78;;;9.14;100.00
29315;BME280;16320;53.954;9.506;2023-04-16T06:45:02;101912.38;;;9.15;100.00
29315;BME280;16320;53.954;9.506;2023-04-16T06:48:07;101908.81;;;9.18;100.00
29315;BME280;16320;53.954;9.506;2023-04-16T06:51:11;101916.63;;;9.19;100.00
29315;BME280;16320;53.954;9.506;2023-04-16T06:54:16;101914.66;;;9.27;100.00
29315;BME280;16320;53.954;9.506;2023-04-16T06:57:22;101906.72;;;9.30;100.00
29315;BME280;16320;53.954;9.506;2023-04-16T07:00:26;101914.59;;;9.30;100.00
29315;BME280;16320;53.954;9.506;2023-04-16T07:03:30;101908.41;;;9.33;100.00
29315;BME280;16320;53.954;9.506;2023-04-16T07:06:35;101910.94;;;9.36;100.00
29315;BME280;16320;53.954;9.506;2023-04-16T07:09:39;101908.19;;;9.41;100.00
29315;BME280;16320;53.954;9.506;2023-04-16T07:12:44;101913.16;;;9.50;100.00
29315;BME280;16320;53.954;9.506;2023-04-16T07:15:48;101912.09;;;9.57;100.00
29315;BME280;16320;53.954;9.506;2023-04-16T07:18:53;101910.16;;;9.64;100.00
29315;BME280;16320;53.954;9.506;2023-04-16T07:22:01;101914.16;;;9.77;100.00
29315;BME280;16320;53.954;9.506;2023-04-16T07:25:06;101915.59;;;9.87;100.00
29315;BME280;16320;53.954;9.506;2023-04-16T07:28:11;101915.31;;;9.97;100.00
29315;BME280;16320;53.954;9.506;2023-04-16T07:31:15;101919.31;;;10.08;100.00
29315;BME280;16320;53.954;9.506;2023-04-16T07:34:19;101907.66;;;10.19;100.00
29315;BME280;16320;53.954;9.506;2023-04-16T07:37:24;101912.50;;;10.33;100.00
29315;BME280;16320;53.954;9.506;2023-04-16T07:40:28;101905.31;;;10.38;100.00
29315;BME280;16320;53.954;9.506;2023-04-16T07:43:32;101905.00;;;10.49;100.00
29315;BME280;16320;53.954;9.506;2023-04-16T07:46:36;101902.16;;;10.55;100.00
29315;BME280;16320;53.954;9.506;2023-04-16T07:49:50;101898.50;;;10.59;100.00
29315;BME280;16320;53.954;9.506;2023-04-16T07:52:54;101893.06;;;10.65;100.00
29315;BME280;16320;53.954;9.506;2023-04-16T07:55:58;101894.69;;;10.69;100.00
29315;BME280;16320;53.954;9.506;2023-04-16T07:59:04;101900.84;;;10.68;100.00
29315;BME280;16320;53.954;9.506;2023-04-16T08:02:25;101905.16;;;10.71;100.00
29315;BME280;16320;53.954;9.506;2023-04-16T08:05:30;101909.38;;;10.75;100.00
29315;BME280;16320;53.954;9.506;2023-04-16T08:08:34;101906.25;;;10.63;100.00
29315;BME280;16320;53.954;9.506;2023-04-16T08:11:39;101910.56;;;10.66;100.00
29315;BME280;16320;53.954;9.506;2023-04-16T08:14:44;101918.38;;;10.68;100.00
29315;BME280;16320;53.954;9.506;2023-04-16T08:17:49;101915.06;;;10.62;100.00
29315;BME280;16320;53.954;9.506;2023-04-16T08:20:53;101919.38;;;10.63;100.00
29315;BME280;16320;53.954;9.506;2023-04-16T08:23:58;101921.97;;;10.65;100.00
29315;BME280;16320;53.954;9.506;2023-04-16T08:27:02;101927.03;;;10.71;100.00
29315;BME280;16320;53.954;9.506;2023-04-16T08:30:22;101933.78;;;10.78;100.00
29315;BME280;16320;53.954;9.506;2023-04-16T08:33:27;101931.06;;;10.81;100.00
29315;BME280;16320;53.954;9.506;2023-04-16T08:36:31;101926.69;;;10.82;100.00
29315;BME280;16320;53.954;9.506;2023-04-16T08:39:36;101931.16;;;10.78;100.00
29315;BME280;16320;53.954;9.506;2023-04-16T08:42:52;101923.88;;;10.87;100.00
29315;BME280;16320;53.954;9.506;2023-04-16T08:45:57;101932.34;;;10.95;100.00
29315;BME280;16320;53.954;9.506;2023-04-16T08:49:05;101926.19;;;10.96;100.00
29315;BME280;16320;53.954;9.506;2023-04-16T08:52:18;101926.88;;;11.01;100.00
29315;BME280;16320;53.954;9.506;2023-04-16T08:55:35;101931.09;;;11.07;100.00
29315;BME280;16320;53.954;9.506;2023-04-16T08:58:41;101916.06;;;11.10;100.00
29315;BME280;16320;53.954;9.506;2023-04-16T09:01:46;101920.28;;;11.14;100.00
29315;BME280;16320;53.954;9.506;2023-04-16T09:04:52;101920.41;;;11.11;100.00
29315;BME280;16320;53.954;9.506;2023-04-16T09:07:58;101921.31;;;11.10;100.00
29315;BME280;16320;53.954;9.506;2023-04-16T09:11:04;101928.38;;;11.10;100.00
29315;BME280;16320;53.954;9.506;2023-04-16T09:14:09;101925.19;;;11.00;100.00
29315;BME280;16320;53.954;9.506;2023-04-16T09:17:16;101935.47;;;11.06;100.00
29315;BME280;16320;53.954;9.506;2023-04-16T09:20:21;101937.19;;;11.07;100.00
29315;BME280;16320;53.954;9.506;2023-04-16T09:23:26;101943.38;;;11.06;100.00
29315;BME280;16320;53.954;9.506;2023-04-16T09:26:31;101946.97;;;11.04;100.00
29315;BME280;16320;53.954;9.506;2023-04-16T09:29:40;101963.69;;;11.01;100.00
29315;BME280;16320;53.954;9.506;2023-04-16T09:32:45;101963.78;;;10.98;100.00
29315;BME280;16320;53.954;9.506;2023-04-16T09:35:53;101953.63;;;10.89;100.00
29315;BME280;16320;53.954;9.506;2023-04-16T09:38:58;101960.56;;;10.90;100.00
29315;BME280;16320;53.954;9.506;2023-04-16T09:42:04;101967.56;;;10.91;100.00
29315;BME280;16320;53.954;9.506;2023-04-16T09:45:10;101969.28;;;10.92;100.00
29315;BME280;16320;53.954;9.506;2023-04-16T09:48:14;101971.09;;;10.90;100.00
29315;BME280;16320;53.954;9.506;2023-04-16T09:51:18;101977.00;;;10.96;100.00
29315;BME280;16320;53.954;9.506;2023-04-16T09:54:25;101988.06;;;11.06;100.00
29315;BME280;16320;53.954;9.506;2023-04-16T09:57:29;101989.69;;;11.10;100.00
29315;BME280;16320;53.954;9.506;2023-04-16T10:00:33;101989.69;;;11.10;100.00
29315;BME280;16320;53.954;9.506;2023-04-16T10:03:48;101992.13;;;11.16;100.00
29315;BME280;16320;53.954;9.506;2023-04-16T10:07:12;101992.81;;;11.22;100.00
29315;BME280;16320;53.954;9.506;2023-04-16T10:10:16;101993.91;;;11.14;100.00
29315;BME280;16320;53.954;9.506;2023-04-16T10:13:21;101992.03;;;11.20;100.00
29315;BME280;16320;53.954;9.506;2023-04-16T10:16:26;101984.03;;;11.23;100.00
29315;BME280;16320;53.954;9.506;2023-04-16T10:19:31;101994.53;;;11.23;100.00
29315;BME280;16320;53.954;9.506;2023-04-16T10:22:36;102001.50;;;11.24;100.00
29315;BME280;16320;53.954;9.506;2023-04-16T10:25:42;102001.09;;;11.36;100.00
29315;BME280;16320;53.954;9.506;2023-04-16T10:28:48;101998.41;;;11.38;100.00
29315;BME280;16320;53.954;9.506;2023-04-16T10:31:54;101997.53;;;11.37;100.00
29315;BME280;16320;53.954;9.506;2023-04-16T10:35:00;102005.28;;;11.42;100.00
29315;BME280;16320;53.954;9.506;2023-04-16T10:38:25;101998.38;;;11.39;100.00
29315;BME280;16320;53.954;9.506;2023-04-16T10:41:31;102005.91;;;11.48;100.00
29315;BME280;16320;53.954;9.506;2023-04-16T10:44:38;102000.28;;;11.59;100.00
29315;BME280;16320;53.954;9.506;2023-04-16T10:47:45;102005.28;;;11.67;100.00
29315;BME280;16320;53.954;9.506;2023-04-16T10:50:56;101994.22;;;11.57;100.00
29315;BME280;16320;53.954;9.506;2023-04-16T10:57:18;101992.88;;;11.45;100.00
29315;BME280;16320;53.954;9.506;2023-04-16T11:00:23;101995.34;;;11.50;100.00
29315;BME280;16320;53.954;9.506;2023-04-16T11:03:30;101993.59;;;11.50;100.00
29315;BME280;16320;53.954;9.506;2023-04-16T11:06:36;101995.28;;;11.51;100.00
29315;BME280;16320;53.954;9.506;2023-04-16T11:12:56;102002.28;;;11.76;100.00
29315;BME280;16320;53.954;9.506;2023-04-16T11:16:01;102005.44;;;11.86;100.00
29315;BME280;16320;53.954;9.506;2023-04-16T11:19:05;101988.69;;;11.88;100.00
29315;BME280;16320;53.954;9.506;2023-04-16T11:22:15;102002.66;;;11.67;100.00
29315;BME280;16320;53.954;9.506;2023-04-16T11:28:33;102019.38;;;11.89;100.00
29315;BME280;16320;53.954;9.506;2023-04-16T11:31:37;102012.03;;;11.74;100.00
29315;BME280;16320;53.954;9.506;2023-04-16T11:34:44;102018.28;;;11.71;100.00
29315;BME280;16320;53.954;9.506;2023-04-16T11:37:55;102013.66;;;11.78;100.00
29315;BME280;16320;53.954;9.506;2023-04-16T11:41:00;102007.56;;;11.76;100.00
29315;BME280;16320;53.954;9.506;2023-04-16T11:47:26;102019.25;;;11.69;100.00
29315;BME280;16320;53.954;9.506;2023-04-16T11:50:30;102016.03;;;11.61;100.00
29315;BME280;16320;53.954;9.506;2023-04-16T11:53:35;102021.50;;;11.54;100.00
29315;BME280;16320;53.954;9.506;2023-04-16T11:56:50;102031.13;;;11.56;100.00
29315;BME280;16320;53.954;9.506;2023-04-16T11:59:57;102037.28;;;11.54;100.00
29315;BME280;16320;53.954;9.506;2023-04-16T12:03:06;102037.06;;;11.61;100.00
29315;BME280;16320;53.954;9.506;2023-04-16T12:06:11;102036.13;;;11.63;100.00
29315;BME280;16320;53.954;9.506;2023-04-16T12:09:25;102031.72;;;11.64;100.00
29315;BME280;16320;53.954;9.506;2023-04-16T12:12:30;102031.00;;;11.59;100.00
29315;BME280;16320;53.954;9.506;2023-04-16T12:15:46;102025.97;;;11.76;100.00
29315;BME280;16320;53.954;9.506;2023-04-16T12:19:01;102028.06;;;11.93;100.00
29315;BME280;16320;53.954;9.506;2023-04-16T12:22:07;102036.31;;;12.07;100.00
29315;BME280;16320;53.954;9.506;2023-04-16T12:25:16;102039.28;;;12.22;100.00
29315;BME280;16320;53.954;9.506;2023-04-16T12:28:34;102027.13;;;12.18;100.00
29315;BME280;16320;53.954;9.506;2023-04-16T12:31:41;102025.94;;;12.26;100.00
29315;BME280;16320;53.954;9.506;2023-04-16T12:34:50;102022.03;;;12.37;100.00
29315;BME280;16320;53.954;9.506;2023-04-16T12:37:56;102020.94;;;12.42;100.00
29315;BME280;16320;53.954;9.506;2023-04-16T12:41:00;102019.72;;;12.51;100.00
29315;BME280;16320;53.954;9.506;2023-04-16T12:44:11;102018.09;;;12.71;100.00
29315;BME280;16320;53.954;9.506;2023-04-16T12:47:15;102011.63;;;12.78;100.00
29315;BME280;16320;53.954;9.506;2023-04-16T12:50:19;101995.94;;;12.75;100.00
29315;BME280;16320;53.954;9.506;2023-04-16T12:53:24;101998.94;;;12.66;100.00
29315;BME280;16320;53.954;9.506;2023-04-16T12:56:29;102005.25;;;12.61;100.00
29315;BME280;16320;53.954;9.506;2023-04-16T12:59:34;102013.00;;;12.66;100.00
29315;BME280;16320;53.954;9.506;2023-04-16T13:02:38;102018.03;;;12.72;100.00
29315;BME280;16320;53.954;9.506;2023-04-16T13:05:43;102014.19;;;12.57;100.00
29315;BME280;16320;53.954;9.506;2023-04-16T13:08:48;102021.97;;;12.60;100.00
29315;BME280;16320;53.954;9.506;2023-04-16T13:11:52;102024.00;;;12.54;100.00
29315;BME280;16320;53.954;9.506;2023-04-16T13:14:57;102026.69;;;12.52;100.00
29315;BME280;16320;53.954;9.506;2023-04-16T13:18:02;102036.44;;;12.50;100.00
29315;BME280;16320;53.954;9.506;2023-04-16T13:21:07;102039.53;;;12.38;100.00
29315;BME280;16320;53.954;9.506;2023-04-16T13:24:11;102036.34;;;12.30;100.00
29315;BME280;16320;53.954;9.506;2023-04-16T13:27:16;102034.16;;;12.41;100.00
29315;BME280;16320;53.954;9.506;2023-04-16T13:30:21;102042.63;;;12.49;100.00
29315;BME280;16320;53.954;9.506;2023-04-16T13:33:26;102035.50;;;12.53;100.00
29315;BME280;16320;53.954;9.506;2023-04-16T13:36:30;102034.03;;;12.44;100.00
29315;BME280;16320;53.954;9.506;2023-04-16T13:39:36;102046.88;;;12.30;100.00
29315;BME280;16320;53.954;9.506;2023-04-16T13:42:40;102039.91;;;12.29;100.00
29315;BME280;16320;53.954;9.506;2023-04-16T13:45:47;102037.34;;;12.27;100.00
29315;BME280;16320;53.954;9.506;2023-04-16T13:48:51;102032.34;;;12.19;100.00
29315;BME280;16320;53.954;9.506;2023-04-16T13:51:56;102040.03;;;12.25;100.00
29315;BME280;16320;53.954;9.506;2023-04-16T13:55:02;102043.47;;;12.27;100.00
29315;BME280;16320;53.954;9.506;2023-04-16T13:58:07;102047.00;;;12.26;100.00
29315;BME280;16320;53.954;9.506;2023-04-16T14:01:11;102045.31;;;12.25;100.00
29315;BME280;16320;53.954;9.506;2023-04-16T14:04:16;102043.56;;;12.24;100.00
29315;BME280;16320;53.954;9.506;2023-04-16T14:07:20;102045.19;;;12.29;100.00
29315;BME280;16320;53.954;9.506;2023-04-16T14:10:31;102046.88;;;12.30;100.00
29315;BME280;16320;53.954;9.506;2023-04-16T14:13:36;102048.72;;;12.27;100.00
29315;BME280;16320;53.954;9.506;2023-04-16T14:16:40;102053.38;;;12.21;100.00
29315;BME280;16320;53.954;9.506;2023-04-16T14:19:45;102057.03;;;12.17;100.00
29315;BME280;16320;53.954;9.506;2023-04-16T14:22:50;102054.38;;;12.17;100.00
29315;BME280;16320;53.954;9.506;2023-04-16T14:25:54;102053.69;;;12.12;100.00
29315;BME280;16320;53.954;9.506;2023-04-16T14:29:00;102045.75;;;12.13;100.00
29315;BME280;16320;53.954;9.506;2023-04-16T14:32:04;102045.81;;;12.12;100.00
29315;BME280;16320;53.954;9.506;2023-04-16T14:35:10;102048.09;;;12.21;100.00
29315;BME280;16320;53.954;9.506;2023-04-16T14:38:14;102046.47;;;12.17;100.00
29315;BME280;16320;53.954;9.506;2023-04-16T14:41:19;102054.69;;;12.09;100.00
29315;BME280;16320;53.954;9.506;2023-04-16T14:44:24;102053.19;;;12.02;100.00
29315;BME280;16320;53.954;9.506;2023-04-16T14:47:28;102050.03;;;11.90;100.00
29315;BME280;16320;53.954;9.506;2023-04-16T14:50:34;102056.31;;;11.88;100.00
29315;BME280;16320;53.954;9.506;2023-04-16T14:53:42;102053.94;;;11.80;100.00
29315;BME280;16320;53.954;9.506;2023-04-16T14:56:48;102053.34;;;11.72;100.00
29315;BME280;16320;53.954;9.506;2023-04-16T14:59:57;102066.63;;;11.69;100.00
29315;BME280;16320;53.954;9.506;2023-04-16T15:03:01;102065.81;;;11.67;100.00
29315;BME280;16320;53.954;9.506;2023-04-16T15:06:06;102087.56;;;11.72;100.00
29315;BME280;16320;53.954;9.506;2023-04-16T15:09:12;102077.25;;;11.66;100.00
29315;BME280;16320;53.954;9.506;2023-04-16T15:12:16;102078.00;;;11.69;100.00
29315;BME280;16320;53.954;9.506;2023-04-16T15:15:22;102069.44;;;11.63;100.00
29315;BME280;16320;53.954;9.506;2023-04-16T15:18:27;102074.66;;;11.64;100.00
29315;BME280;16320;53.954;9.506;2023-04-16T15:21:32;102084.34;;;11.64;100.00
29315;BME280;16320;53.954;9.506;2023-04-16T15:24:38;102079.88;;;11.66;100.00
29315;BME280;16320;53.954;9.506;2023-04-16T15:27:43;102086.78;;;11.70;100.00
29315;BME280;16320;53.954;9.506;2023-04-16T15:30:47;102094.44;;;11.76;100.00
29315;BME280;16320;53.954;9.506;2023-04-16T15:33:51;102098.78;;;11.77;100.00
29315;BME280;16320;53.954;9.506;2023-04-16T15:36:56;102097.78;;;11.81;100.00
29315;BME280;16320;53.954;9.506;2023-04-16T15:40:00;102106.47;;;11.83;100.00
29315;BME280;16320;53.954;9.506;2023-04-16T15:43:05;102111.09;;;11.77;100.00
29315;BME280;16320;53.954;9.506;2023-04-16T15:46:09;102107.63;;;11.75;100.00
29315;BME280;16320;53.954;9.506;2023-04-16T15:49:15;102110.56;;;11.67;100.00
29315;BME280;16320;53.954;9.506;2023-04-16T15:52:19;102121.50;;;11.54;100.00
29315;BME280;16320;53.954;9.506;2023-04-16T15:55:24;102127.03;;;11.45;100.00
29315;BME280;16320;53.954;9.506;2023-04-16T15:58:29;102122.84;;;11.40;100.00
29315;BME280;16320;53.954;9.506;2023-04-16T16:01:33;102127.47;;;11.33;100.00
29315;BME280;16320;53.954;9.506;2023-04-16T16:04:37;102131.94;;;11.31;100.00
29315;BME280;16320;53.954;9.506;2023-04-16T16:07:49;102138.09;;;11.30;100.00
29315;BME280;16320;53.954;9.506;2023-04-16T16:10:55;102135.69;;;11.22;100.00
29315;BME280;16320;53.954;9.506;2023-04-16T16:14:00;102141.97;;;11.18;100.00
29315;BME280;16320;53.954;9.506;2023-04-16T16:17:04;102150.91;;;11.12;100.00